Terminal Aerodrome Forecast
Issued by NWS

Home | Current Version | Previous Version | Text Only | Print | Product List | Glossary On
Versions: 1 2 3 4 5 6 7 8 9 10 11 12 13 14 15 16 17 18 19 20
000
FTUS41 KILN 011730
TAFLCK
TAF
KLCK 011730Z 0118/0218 20005KT P6SM VCTS BKN040CB
     FM020100 VRB03KT P6SM FEW050
     FM020800 00000KT 4SM BR BKN040
      TEMPO 0210/0212 1SM BR
     FM021400 25005KT P6SM BKN050=

USA.gov is the U.S. government's official web portal to all federal, state and local government web resources and services.